createdAt,value
2018-04-06T00:00:13.211Z,17.75
2018-04-06T00:02:40.645Z,21.58
2018-04-06T00:05:08.964Z,21.58
2018-04-06T00:07:36.378Z,19.45
2018-04-06T00:10:04.590Z,19.35
2018-04-06T00:12:32.044Z,16.35
2018-04-06T00:14:59.499Z,24.02
2018-04-06T00:17:26.929Z,23.20
2018-04-06T00:19:55.134Z,16.17
2018-04-06T00:22:22.578Z,19.87
2018-04-06T00:24:50.006Z,21.60
2018-04-06T00:27:17.453Z,20.08
2018-04-06T00:29:44.885Z,16.70
2018-04-06T00:32:12.314Z,18.37
2018-04-06T00:34:39.764Z,19.00
2018-04-06T00:37:07.189Z,21.75
2018-04-06T00:39:34.632Z,23.48
2018-04-06T00:42:02.577Z,20.12
2018-04-06T00:44:30.009Z,20.73
2018-04-06T00:46:57.448Z,17.77
2018-04-06T00:49:24.902Z,22.90
2018-04-06T00:51:53.071Z,18.17
2018-04-06T00:54:20.505Z,18.20
2018-04-06T00:56:48.716Z,16.50
2018-04-06T00:59:16.154Z,21.73
2018-04-06T01:01:43.601Z,22.45
2018-04-06T01:04:11.803Z,20.70
2018-04-06T01:06:39.262Z,25.27
2018-04-06T01:09:06.704Z,20.60
2018-04-06T01:11:34.191Z,16.05
2018-04-06T01:14:01.654Z,17.37
2018-04-06T01:16:29.101Z,21.15
2018-04-06T01:18:56.557Z,16.60
2018-04-06T01:21:24.003Z,21.48
2018-04-06T01:23:51.466Z,20.08
2018-04-06T01:26:18.935Z,21.05
2018-04-06T01:28:46.366Z,15.90
2018-04-06T01:31:13.799Z,19.02
2018-04-06T01:33:42.028Z,21.25
2018-04-06T01:36:09.486Z,22.83
2018-04-06T01:38:36.924Z,18.75
2018-04-06T01:41:04.370Z,21.05
2018-04-06T01:43:31.809Z,19.08
2018-04-06T01:45:59.276Z,23.48
2018-04-06T01:48:26.693Z,21.40
2018-04-06T01:50:54.898Z,16.95
2018-04-06T01:53:22.401Z,18.20
2018-04-06T01:55:49.842Z,18.35
2018-04-06T01:58:17.290Z,18.70
2018-04-06T02:00:44.758Z,16.55
2018-04-06T02:03:12.201Z,22.67
2018-04-06T02:05:39.666Z,23.25
2018-04-06T02:08:07.102Z,25.00
2018-04-06T02:10:34.531Z,25.70
2018-04-06T02:13:02.746Z,18.33
2018-04-06T02:15:30.192Z,22.90
2018-04-06T02:17:57.652Z,18.95
2018-04-06T02:20:25.088Z,19.67
2018-04-06T02:22:52.530Z,18.10
2018-04-06T02:25:19.961Z,27.42
2018-04-06T02:27:47.482Z,20.73
2018-04-06T02:30:14.929Z,23.50
2018-04-06T02:32:42.405Z,22.95
2018-04-06T02:35:09.831Z,22.58
2018-04-06T02:37:37.372Z,18.95
2018-04-06T02:40:04.874Z,22.58
2018-04-06T02:42:32.410Z,19.45
2018-04-06T02:44:59.820Z,18.23
2018-04-06T02:47:27.250Z,18.48
2018-04-06T02:49:54.806Z,22.67
2018-04-06T02:52:22.263Z,20.83
2018-04-06T02:54:49.683Z,24.08
2018-04-06T02:57:17.119Z,22.73
2018-04-06T02:59:45.311Z,20.75
2018-04-06T03:02:12.746Z,23.23
2018-04-06T03:04:40.949Z,21.50
2018-04-06T03:07:08.448Z,22.00
2018-04-06T03:09:35.870Z,24.15
2018-04-06T03:12:03.290Z,18.02
2018-04-06T03:14:31.598Z,25.83
2018-04-06T03:16:59.021Z,22.83
2018-04-06T03:19:27.223Z,23.05
2018-04-06T03:21:54.658Z,19.25
2018-04-06T03:24:22.093Z,21.10
2018-04-06T03:26:50.337Z,23.70
2018-04-06T03:29:17.767Z,20.63
2018-04-06T03:31:45.251Z,20.93
2018-04-06T03:34:12.682Z,22.27
2018-04-06T03:36:40.115Z,22.23
2018-04-06T03:39:07.614Z,22.30
2018-04-06T03:41:35.050Z,23.38
2018-04-06T03:44:02.508Z,19.85
2018-04-06T03:46:29.939Z,23.92
2018-04-06T03:48:57.373Z,18.12
2018-04-06T03:51:24.806Z,22.52
2018-04-06T03:53:52.250Z,19.92
2018-04-06T03:56:19.682Z,21.70
2018-04-06T03:58:47.123Z,17.92
2018-04-06T04:01:14.547Z,24.92
2018-04-06T04:03:42.086Z,22.37
2018-04-06T04:06:09.543Z,20.73
2018-04-06T04:08:36.989Z,23.67
2018-04-06T04:11:04.421Z,19.90
2018-04-06T04:13:31.902Z,22.45
2018-04-06T04:15:59.369Z,22.40
2018-04-06T04:18:26.849Z,20.70
2018-04-06T04:20:54.269Z,19.87
2018-04-06T04:23:21.697Z,19.33
2018-04-06T04:25:49.121Z,18.87
2018-04-06T04:28:17.326Z,24.20
2018-04-06T04:30:44.772Z,19.10
2018-04-06T04:33:12.983Z,22.27
2018-04-06T04:35:40.429Z,20.45
2018-04-06T04:38:08.435Z,23.00
2018-04-06T04:40:35.975Z,20.80
2018-04-06T04:43:03.410Z,23.00
2018-04-06T04:45:30.847Z,22.87
2018-04-06T04:47:58.291Z,17.92
2018-04-06T04:50:26.496Z,18.45
2018-04-06T04:52:53.936Z,25.23
2018-04-06T04:55:21.362Z,20.83
2018-04-06T04:57:49.587Z,20.07
2018-04-06T05:00:17.145Z,20.60
2018-04-06T05:02:44.565Z,19.40
2018-04-06T05:05:12.767Z,19.95
2018-04-06T05:07:40.243Z,21.30
2018-04-06T05:10:07.677Z,16.40
2018-04-06T05:12:35.123Z,19.52
2018-04-06T05:15:03.318Z,20.42
2018-04-06T05:17:30.742Z,19.27
2018-04-06T05:19:58.170Z,16.75
2018-04-06T05:22:25.603Z,19.90
2018-04-06T05:24:53.042Z,19.33
2018-04-06T05:27:20.471Z,22.52
2018-04-06T05:29:47.951Z,26.60
2018-04-06T05:32:15.450Z,16.92
2018-04-06T05:34:42.875Z,23.08
2018-04-06T05:37:10.314Z,26.52
2018-04-06T05:39:37.746Z,18.92
2018-04-06T05:42:05.209Z,19.58
2018-04-06T05:44:32.640Z,15.10
2018-04-06T05:47:00.089Z,25.83
2018-04-06T05:49:27.518Z,22.60
2018-04-06T05:51:55.006Z,20.00
2018-04-06T05:54:22.498Z,17.93
2018-04-06T05:56:49.915Z,19.75
2018-04-06T05:59:17.354Z,18.50
2018-04-06T06:01:44.830Z,18.92
2018-04-06T06:04:13.078Z,21.90
2018-04-06T06:06:40.519Z,18.00
2018-04-06T06:09:07.941Z,16.10
2018-04-06T06:11:36.133Z,24.53
2018-04-06T06:14:03.580Z,21.40
2018-04-06T06:16:31.008Z,19.42
2018-04-06T06:18:58.446Z,19.50
2018-04-06T06:21:25.894Z,20.00
2018-04-06T06:23:53.335Z,20.55
2018-04-06T06:26:20.763Z,19.33
2018-04-06T06:28:48.203Z,17.60
2018-04-06T06:31:16.416Z,19.45
2018-04-06T06:33:43.865Z,14.73
2018-04-06T06:36:11.283Z,16.55
2018-04-06T06:38:39.492Z,18.55
2018-04-06T06:41:06.954Z,17.40
2018-04-06T06:43:34.509Z,20.02
2018-04-06T06:46:02.069Z,19.40
2018-04-06T06:48:29.498Z,16.10
2018-04-06T06:50:56.982Z,14.45
2018-04-06T06:53:24.398Z,18.98
2018-04-06T06:55:52.610Z,12.15
2018-04-06T06:58:20.050Z,17.77
2018-04-06T07:00:48.345Z,14.80
2018-04-06T07:03:15.902Z,15.53
2018-04-06T07:05:43.343Z,18.17
2018-04-06T07:08:10.784Z,20.10
2018-04-06T07:10:38.985Z,20.65
2018-04-06T07:13:06.416Z,18.02
2018-04-06T07:15:34.726Z,19.90
2018-04-06T07:18:02.150Z,15.95
2018-04-06T07:20:29.632Z,20.98
2018-04-06T07:22:57.079Z,15.20
2018-04-06T07:25:24.543Z,16.05
2018-04-06T07:27:51.978Z,16.10
2018-04-06T07:30:20.196Z,15.48
2018-04-06T07:32:47.630Z,14.80
2018-04-06T07:35:15.085Z,14.13
2018-04-06T07:37:42.570Z,12.00
2018-04-06T07:40:10.014Z,11.50
2018-04-06T07:42:37.458Z,13.48
2018-04-06T07:45:04.925Z,14.13
2018-04-06T07:47:32.353Z,11.82
2018-04-06T07:49:59.826Z,15.38
2018-04-06T07:52:27.258Z,11.57
2018-04-06T07:54:54.689Z,15.57
2018-04-06T07:57:22.120Z,12.07
2018-04-06T07:59:49.649Z,12.13
2018-04-06T08:02:17.104Z,13.05
2018-04-06T08:04:44.522Z,17.25
2018-04-06T08:07:12.722Z,13.77
2018-04-06T08:09:40.165Z,14.52
2018-04-06T08:12:08.468Z,14.20
2018-04-06T08:14:35.894Z,12.70
2018-04-06T08:17:04.200Z,15.82
2018-04-06T08:19:31.640Z,13.82
2018-04-06T08:21:59.930Z,11.05
2018-04-06T08:24:27.338Z,9.40
2018-04-06T08:26:54.790Z,10.10
2018-04-06T08:29:22.217Z,13.52
2018-04-06T08:31:49.757Z,11.02
2018-04-06T08:34:17.161Z,10.27
2018-04-06T08:36:45.491Z,11.20
2018-04-06T08:39:12.895Z,11.88
2018-04-06T08:41:40.338Z,8.90
2018-04-06T08:44:07.775Z,11.85
2018-04-06T08:46:35.215Z,6.57
2018-04-06T08:49:02.658Z,10.95
2018-04-06T08:51:30.093Z,7.68
2018-04-06T08:53:58.398Z,9.68
2018-04-06T08:56:25.842Z,9.03
2018-04-06T08:58:53.414Z,10.80
2018-04-06T09:01:20.890Z,7.80
2018-04-06T09:03:48.324Z,6.70
2018-04-06T09:06:15.801Z,9.65
2018-04-06T09:08:43.227Z,9.40
2018-04-06T09:11:10.660Z,6.35
2018-04-06T09:13:38.846Z,8.55
2018-04-06T09:16:06.330Z,7.43
2018-04-06T09:18:33.743Z,7.32
2018-04-06T09:21:01.954Z,5.25
2018-04-06T09:23:29.369Z,6.45
2018-04-06T09:25:57.561Z,8.60
2018-04-06T09:28:24.991Z,6.40
2018-04-06T09:30:52.500Z,6.22
2018-04-06T09:33:19.934Z,5.40
2018-04-06T09:35:47.370Z,5.95
2018-04-06T09:38:15.581Z,6.18
2018-04-06T09:40:43.040Z,6.40
2018-04-06T09:43:10.494Z,4.82
2018-04-06T09:45:37.914Z,6.85
2018-04-06T09:48:06.141Z,4.05
2018-04-06T09:50:33.682Z,5.75
2018-04-06T09:53:01.241Z,5.00
2018-04-06T09:55:28.646Z,6.90
2018-04-06T09:57:56.083Z,7.23
2018-04-06T10:00:29.238Z,6.30
2018-04-06T10:02:56.717Z,5.70
2018-04-06T10:05:24.158Z,5.60
2018-04-06T10:07:51.582Z,5.15
2018-04-06T10:10:19.782Z,4.83
2018-04-06T10:12:47.240Z,5.70
2018-04-06T10:15:14.698Z,5.05
2018-04-06T10:17:42.122Z,4.87
2018-04-06T10:20:10.314Z,3.83
2018-04-06T10:22:37.742Z,2.42
2018-04-06T10:25:05.957Z,3.20
2018-04-06T10:27:33.430Z,3.75
2018-04-06T10:30:00.895Z,4.37
2018-04-06T10:32:28.324Z,5.57
2018-04-06T10:34:55.887Z,4.15
2018-04-06T10:37:23.310Z,4.03
2018-04-06T10:39:51.554Z,5.28
2018-04-06T10:42:19.079Z,3.80
2018-04-06T10:44:46.505Z,3.78
2018-04-06T10:47:14.833Z,2.45
2018-04-06T10:49:42.297Z,3.45
2018-04-06T10:52:09.825Z,6.50
2018-04-06T10:54:37.251Z,6.20
2018-04-06T10:57:05.466Z,4.55
2018-04-06T10:59:32.906Z,5.20
2018-04-06T11:02:00.494Z,4.72
2018-04-06T11:04:27.938Z,6.60
2018-04-06T11:06:55.379Z,5.78
2018-04-06T11:09:22.825Z,4.97
2018-04-06T11:11:50.251Z,6.68
2018-04-06T11:14:18.470Z,6.60
2018-04-06T11:16:45.926Z,5.03
2018-04-06T11:19:13.377Z,5.35
2018-04-06T11:21:40.854Z,8.82
2018-04-06T11:24:08.397Z,5.35
2018-04-06T11:26:35.870Z,4.20
2018-04-06T11:29:03.408Z,6.60
2018-04-06T11:31:30.878Z,7.47
2018-04-06T11:33:58.526Z,5.22
2018-04-06T11:36:25.970Z,4.10
2018-04-06T11:38:53.432Z,5.93
2018-04-06T11:41:20.893Z,10.07
2018-04-06T11:43:48.353Z,5.60
2018-04-06T11:46:15.822Z,7.05
2018-04-06T11:48:43.286Z,6.05
2018-04-06T11:51:10.781Z,5.00
2018-04-06T11:53:39.024Z,5.12
2018-04-06T11:56:06.471Z,4.47
2018-04-06T11:58:33.946Z,5.95
2018-04-06T12:01:01.573Z,4.00
2018-04-06T12:03:29.014Z,4.62
2018-04-06T12:05:56.468Z,4.28
2018-04-06T12:08:23.911Z,5.20
2018-04-06T12:10:52.135Z,5.55
2018-04-06T12:13:19.582Z,7.72
2018-04-06T12:15:47.033Z,5.90
2018-04-06T12:18:14.461Z,7.37
2018-04-06T12:20:41.902Z,7.68
2018-04-06T12:23:10.218Z,6.68
2018-04-06T12:25:37.674Z,5.15
2018-04-06T12:28:05.132Z,9.57
2018-04-06T12:30:32.545Z,7.62
2018-04-06T12:32:59.987Z,4.65
2018-04-06T12:35:27.499Z,6.12
2018-04-06T12:37:54.925Z,3.05
2018-04-06T12:40:23.231Z,3.78
2018-04-06T12:42:50.658Z,3.85
2018-04-06T12:45:18.864Z,3.50
2018-04-06T12:47:46.314Z,5.18
2018-04-06T12:50:13.750Z,3.28
2018-04-06T12:52:41.190Z,4.28
2018-04-06T12:55:08.617Z,5.22
2018-04-06T12:57:36.142Z,3.42
2018-04-06T13:00:03.600Z,2.67
2018-04-06T13:02:31.036Z,2.92
2018-04-06T13:04:59.239Z,5.32
2018-04-06T13:07:26.678Z,5.72
2018-04-06T13:09:54.200Z,4.90
2018-04-06T13:12:21.814Z,4.35
2018-04-06T13:14:49.252Z,4.90
2018-04-06T13:17:16.732Z,5.28
2018-04-06T13:19:44.222Z,4.18
2018-04-06T13:22:11.673Z,5.80
2018-04-06T13:24:39.204Z,3.63
2018-04-06T13:27:06.622Z,2.67
2018-04-06T13:29:34.838Z,5.87
2018-04-06T13:32:02.289Z,4.20
2018-04-06T13:34:29.741Z,5.35
2018-04-06T13:36:57.183Z,4.75
2018-04-06T13:39:24.658Z,4.70
2018-04-06T13:41:52.092Z,4.82
2018-04-06T13:44:19.596Z,6.37
2018-04-06T13:46:47.022Z,9.52
2018-04-06T13:49:14.455Z,6.53
2018-04-06T13:51:42.658Z,7.70
2018-04-06T13:54:10.111Z,4.60
2018-04-06T13:56:37.669Z,7.72
2018-04-06T13:59:05.123Z,5.05
2018-04-06T14:01:32.600Z,6.10
2018-04-06T14:04:00.034Z,5.10
2018-04-06T14:06:27.493Z,2.92
2018-04-06T14:08:54.938Z,4.50
2018-04-06T14:11:22.386Z,2.95
2018-04-06T14:13:49.826Z,4.43
2018-04-06T14:16:18.036Z,2.55
2018-04-06T14:18:45.495Z,6.05
2018-04-06T14:21:12.954Z,3.55
2018-04-06T14:23:40.427Z,3.00
2018-04-06T14:26:07.851Z,5.28
2018-04-06T14:28:35.322Z,3.85
2018-04-06T14:31:02.781Z,4.40
2018-04-06T14:33:30.235Z,3.25
2018-04-06T14:35:57.706Z,4.93
2018-04-06T14:38:25.169Z,4.15
2018-04-06T14:40:52.589Z,3.60
2018-04-06T14:43:20.041Z,6.40
2018-04-06T14:45:47.517Z,5.53
2018-04-06T14:48:14.945Z,4.03
2018-04-06T14:50:43.138Z,9.48
2018-04-06T14:53:10.623Z,5.00
2018-04-06T14:55:38.163Z,3.87
2018-04-06T14:58:05.726Z,3.62
2018-04-06T15:00:33.279Z,3.50
2018-04-06T15:03:00.859Z,8.20
2018-04-06T15:05:28.333Z,3.75
2018-04-06T15:07:55.754Z,4.05
2018-04-06T15:10:23.207Z,10.98
2018-04-06T15:12:50.683Z,5.50
2018-04-06T15:15:18.138Z,4.25
2018-04-06T15:17:45.595Z,8.38
2018-04-06T15:20:13.065Z,5.95
2018-04-06T15:22:40.570Z,4.30
2018-04-06T15:25:08.769Z,7.25
2018-04-06T15:27:36.220Z,6.43
2018-04-06T15:30:03.658Z,5.93
2018-04-06T15:32:31.157Z,6.07
2018-04-06T15:34:58.732Z,4.28
2018-04-06T15:37:26.366Z,7.47
2018-04-06T15:39:53.920Z,5.07
2018-04-06T15:42:21.406Z,3.58
2018-04-06T15:44:48.863Z,5.28
2018-04-06T15:47:16.311Z,4.50
2018-04-06T15:49:43.773Z,3.20
2018-04-06T15:52:11.301Z,5.80
2018-04-06T15:54:38.753Z,5.32
2018-04-06T15:57:06.414Z,5.55
2018-04-06T15:59:33.840Z,3.90
2018-04-06T16:02:02.080Z,4.28
2018-04-06T16:04:29.524Z,4.05
2018-04-06T16:06:56.995Z,6.87
2018-04-06T16:09:24.433Z,4.95
2018-04-06T16:11:51.869Z,3.50
2018-04-06T16:14:19.310Z,5.15
2018-04-06T16:16:46.748Z,4.95
2018-04-06T16:19:14.954Z,4.30
2018-04-06T16:21:42.397Z,2.90
2018-04-06T16:24:09.870Z,3.30
2018-04-06T16:26:37.434Z,3.50
2018-04-06T16:29:04.858Z,3.30
2018-04-06T16:31:33.165Z,7.10
2018-04-06T16:34:00.580Z,6.12
2018-04-06T16:36:28.901Z,5.93
2018-04-06T16:38:56.325Z,5.22
2018-04-06T16:41:24.522Z,4.32
2018-04-06T16:43:51.950Z,4.55
2018-04-06T16:46:20.257Z,7.30
2018-04-06T16:48:47.724Z,4.28
2018-04-06T16:51:15.158Z,4.37
2018-04-06T16:53:42.598Z,7.37
2018-04-06T16:56:10.826Z,5.30
2018-04-06T16:58:38.296Z,5.28
2018-04-06T17:01:05.737Z,4.45
2018-04-06T17:03:33.186Z,5.30
2018-04-06T17:06:00.627Z,4.25
2018-04-06T17:08:28.114Z,3.92
2018-04-06T17:10:55.641Z,4.40
2018-04-06T17:13:23.066Z,4.47
2018-04-06T17:15:51.372Z,5.30
2018-04-06T17:18:18.830Z,5.15
2018-04-06T17:20:46.284Z,3.80
2018-04-06T17:23:13.711Z,4.00
2018-04-06T17:25:42.021Z,3.33
2018-04-06T17:28:09.476Z,3.70
2018-04-06T17:30:36.935Z,6.75
2018-04-06T17:33:04.363Z,6.03
2018-04-06T17:35:32.669Z,5.80
2018-04-06T17:38:00.086Z,5.87
2018-04-06T17:40:28.398Z,4.93
2018-04-06T17:42:55.814Z,4.63
2018-04-06T17:45:24.020Z,5.50
2018-04-06T17:47:51.482Z,3.92
2018-04-06T17:50:18.907Z,4.47
2018-04-06T17:52:47.123Z,6.15
2018-04-06T17:55:14.672Z,4.97
2018-04-06T17:57:42.127Z,4.90
2018-04-06T18:00:09.555Z,7.18
2018-04-06T18:02:37.892Z,5.12
2018-04-06T18:05:05.338Z,6.77
2018-04-06T18:07:32.778Z,5.95
2018-04-06T18:10:00.253Z,5.70
2018-04-06T18:12:27.834Z,6.32
2018-04-06T18:14:55.350Z,8.25
2018-04-06T18:17:22.782Z,7.50
2018-04-06T18:19:51.187Z,5.80
2018-04-06T18:22:18.624Z,7.47
2018-04-06T18:24:46.130Z,10.68
2018-04-06T18:27:13.666Z,6.43
2018-04-06T18:29:41.118Z,6.67
2018-04-06T18:32:08.550Z,6.60
2018-04-06T18:34:37.771Z,4.95
2018-04-06T18:37:05.222Z,8.75
2018-04-06T18:39:32.705Z,6.43
2018-04-06T18:42:00.175Z,6.30
2018-04-06T18:44:27.616Z,7.72
2018-04-06T18:46:55.072Z,8.27
2018-04-06T18:49:22.535Z,8.68
2018-04-06T18:51:50.077Z,9.70
2018-04-06T18:54:17.518Z,9.52
2018-04-06T18:56:44.989Z,9.10
2018-04-06T18:59:12.406Z,9.27
2018-04-06T19:01:39.842Z,5.70
2018-04-06T19:04:07.273Z,7.32
2018-04-06T19:06:34.729Z,8.57
2018-04-06T19:09:02.284Z,9.85
2018-04-06T19:11:29.881Z,7.70
2018-04-06T19:13:57.435Z,8.40
2018-04-06T19:16:24.988Z,7.80
2018-04-06T19:18:52.384Z,7.53
2018-04-06T19:21:20.688Z,7.03
2018-04-06T19:23:48.103Z,5.97
2018-04-06T19:26:16.419Z,7.20
2018-04-06T19:28:43.967Z,5.57
2018-04-06T19:31:11.406Z,6.80
2018-04-06T19:33:38.842Z,8.88
2018-04-06T19:36:06.309Z,8.85
2018-04-06T19:38:34.517Z,7.00
2018-04-06T19:41:01.951Z,6.90
2018-04-06T19:43:29.380Z,5.67
2018-04-06T19:45:56.829Z,6.43
2018-04-06T19:48:24.296Z,5.75
2018-04-06T19:50:51.733Z,7.65
2018-04-06T19:53:19.251Z,7.85
2018-04-06T19:55:46.724Z,8.45
2018-04-06T19:58:14.229Z,6.43
2018-04-06T20:00:41.873Z,5.20
2018-04-06T20:03:09.319Z,7.83
2018-04-06T20:05:36.791Z,4.65
2018-04-06T20:08:04.406Z,6.18
2018-04-06T20:10:31.894Z,6.43
2018-04-06T20:12:59.339Z,5.75
2018-04-06T20:15:26.822Z,7.28
2018-04-06T20:17:54.382Z,5.65
2018-04-06T20:20:21.895Z,5.72
2018-04-06T20:22:49.313Z,8.45
2018-04-06T20:25:17.514Z,7.07
2018-04-06T20:27:44.966Z,6.45
2018-04-06T20:30:12.397Z,5.53
2018-04-06T20:32:39.842Z,5.65
2018-04-06T20:35:07.367Z,6.15
2018-04-06T20:37:34.790Z,7.30
2018-04-06T20:40:02.264Z,5.40
2018-04-06T20:42:29.722Z,6.40
2018-04-06T20:44:57.137Z,7.35
2018-04-06T20:47:25.343Z,4.90
2018-04-06T20:49:52.773Z,4.90
2018-04-06T20:52:20.970Z,6.72
2018-04-06T20:54:48.402Z,5.40
2018-04-06T20:57:16.606Z,6.00
2018-04-06T20:59:44.050Z,5.07
2018-04-06T21:02:11.492Z,3.80
2018-04-06T21:04:39.800Z,6.40
2018-04-06T21:07:07.218Z,5.90
2018-04-06T21:09:35.413Z,7.68
2018-04-06T21:12:02.846Z,6.60
2018-04-06T21:14:30.293Z,5.68
2018-04-06T21:16:57.728Z,3.37
2018-04-06T21:19:25.267Z,5.28
2018-04-06T21:21:52.702Z,4.70
2018-04-06T21:24:20.132Z,6.20
2018-04-06T21:26:47.629Z,6.50
2018-04-06T21:29:15.078Z,5.43
2018-04-06T21:31:42.510Z,4.72
2018-04-06T21:34:10.717Z,11.07
2018-04-06T21:36:38.167Z,4.82
2018-04-06T21:39:06.371Z,8.15
2018-04-06T21:41:33.798Z,7.18
2018-04-06T21:44:01.226Z,5.60
2018-04-06T21:46:29.447Z,4.95
2018-04-06T21:48:56.874Z,7.90
2018-04-06T21:51:24.390Z,7.10
2018-04-06T21:53:51.904Z,8.43
2018-04-06T21:56:19.324Z,4.62
2018-04-06T21:58:47.519Z,5.72
2018-04-06T22:01:14.971Z,7.60
2018-04-06T22:03:42.405Z,6.22
2018-04-06T22:06:10.645Z,10.83
2018-04-06T22:08:38.050Z,6.95
2018-04-06T22:11:05.484Z,8.07
2018-04-06T22:13:32.990Z,9.88
2018-04-06T22:16:00.446Z,7.30
2018-04-06T22:18:27.903Z,7.33
2018-04-06T22:20:55.371Z,11.60
2018-04-06T22:23:22.818Z,10.18
2018-04-06T22:25:50.244Z,5.20
2018-04-06T22:28:18.446Z,7.43
2018-04-06T22:30:45.907Z,8.20
2018-04-06T22:33:13.339Z,7.63
2018-04-06T22:35:40.853Z,7.18
2018-04-06T22:38:08.283Z,6.12
2018-04-06T22:40:35.726Z,8.18
2018-04-06T22:43:03.175Z,6.75
2018-04-06T22:45:30.664Z,8.48
2018-04-06T22:47:58.114Z,7.68
2018-04-06T22:50:25.554Z,6.80
2018-04-06T22:52:52.999Z,6.37
2018-04-06T22:55:20.422Z,8.07
2018-04-06T22:57:48.636Z,7.93
2018-04-06T23:00:16.099Z,8.23
2018-04-06T23:02:43.684Z,6.97
2018-04-06T23:05:11.125Z,6.87
2018-04-06T23:07:38.563Z,6.00
2018-04-06T23:10:05.994Z,6.30
2018-04-06T23:12:33.422Z,7.90
2018-04-06T23:15:00.862Z,6.82
2018-04-06T23:17:28.304Z,6.95
2018-04-06T23:19:55.750Z,6.97
2018-04-06T23:22:23.204Z,8.77
2018-04-06T23:24:50.689Z,7.50
2018-04-06T23:27:18.131Z,8.57
2018-04-06T23:29:45.626Z,8.20
2018-04-06T23:32:13.818Z,9.18
2018-04-06T23:34:41.245Z,8.20
2018-04-06T23:37:08.688Z,7.95
2018-04-06T23:39:36.141Z,7.75
2018-04-06T23:42:03.582Z,10.55
2018-04-06T23:44:31.039Z,9.77
2018-04-06T23:46:58.475Z,8.23
2018-04-06T23:49:25.958Z,9.40
2018-04-06T23:51:53.386Z,6.32
2018-04-06T23:54:20.840Z,6.85
2018-04-06T23:56:48.716Z,5.85
2018-04-06T23:59:16.169Z,6.10
